Time;durP1;ratioP1;P1;durP2;ratioP2;P2;SDS_P1;SDS_P2;PMS_P1;PMS_P2;Temp;Humidity;BMP_temperature;BMP_pressure;BME280_temperature;BME280_humidity;BME280_pressure;Samples;Min_cycle;Max_cycle;Signal;HPM_P1;HPM_P2
2023/05/21 00:01:39;;;;;;;26.47;19.10;;;17.20;96.00;;;;;;5066397;27;20501;-61
2023/05/21 00:04:06;;;;;;;30.60;19.47;;;17.20;96.00;;;;;;5044292;27;20885;-62
2023/05/21 00:06:34;;;;;;;28.60;19.97;;;17.20;96.10;;;;;;5067227;27;20559;-62
2023/05/21 00:09:02;;;;;;;29.07;20.70;;;17.20;96.10;;;;;;5043126;28;20489;-62
2023/05/21 00:11:29;;;;;;;23.20;18.17;;;17.20;96.10;;;;;;5085073;27;20483;-62
2023/05/21 00:13:56;;;;;;;22.27;18.27;;;17.20;96.00;;;;;;5090552;27;20481;-62
2023/05/21 00:16:25;;;;;;;25.07;18.37;;;17.20;96.20;;;;;;5065417;27;20487;-62
2023/05/21 00:18:53;;;;;;;23.77;19.57;;;17.20;96.00;;;;;;5095712;27;21185;-62
2023/05/21 00:21:21;;;;;;;26.50;19.43;;;17.20;96.30;;;;;;5064412;28;20483;-62
2023/05/21 00:23:48;;;;;;;23.77;17.87;;;17.20;96.30;;;;;;5062115;28;20487;-62
2023/05/21 00:26:15;;;;;;;25.40;19.63;;;17.20;96.20;;;;;;5061357;27;20476;-62
2023/05/21 00:28:42;;;;;;;25.50;19.50;;;17.10;96.50;;;;;;5060989;27;20947;-62
2023/05/21 00:31:09;;;;;;;26.60;19.30;;;17.10;96.60;;;;;;5087978;27;20465;-62
2023/05/21 00:33:37;;;;;;;26.67;19.93;;;17.10;96.60;;;;;;5076210;28;20732;-62
2023/05/21 00:36:04;;;;;;;23.00;18.87;;;17.10;96.70;;;;;;5061712;27;20476;-62
2023/05/21 00:38:31;;;;;;;27.27;21.33;;;17.10;96.70;;;;;;5096231;27;20543;-62
2023/05/21 00:41:01;;;;;;;28.00;21.63;;;17.00;96.80;;;;;;5066153;27;20469;-62
2023/05/21 00:43:28;;;;;;;26.97;21.67;;;17.00;96.80;;;;;;5088799;27;20484;-62
2023/05/21 00:45:57;;;;;;;27.90;20.33;;;17.10;96.80;;;;;;5080099;27;20481;-62
2023/05/21 00:48:24;;;;;;;26.43;20.17;;;17.00;96.80;;;;;;5058765;28;21100;-62
2023/05/21 00:50:52;;;;;;;28.60;21.20;;;17.00;96.90;;;;;;5056740;28;20474;-62
2023/05/21 00:53:19;;;;;;;30.67;21.90;;;17.00;96.90;;;;;;5049289;27;20539;-62
2023/05/21 00:55:47;;;;;;;26.97;21.07;;;17.00;97.00;;;;;;5093586;27;20573;-61
2023/05/21 00:58:16;;;;;;;29.10;19.90;;;17.10;97.00;;;;;;5077481;27;20796;-62
2023/05/21 01:00:43;;;;;;;25.10;20.33;;;17.00;97.00;;;;;;5078376;27;20474;-62
2023/05/21 01:03:11;;;;;;;29.83;19.63;;;17.00;97.00;;;;;;5086879;27;20476;-62
2023/05/21 01:05:38;;;;;;;24.47;19.40;;;17.00;97.10;;;;;;5068974;28;20572;-62
2023/05/21 01:08:09;;;;;;;28.70;21.93;;;17.00;96.90;;;;;;5065622;28;20844;-62
2023/05/21 01:10:36;;;;;;;27.43;20.90;;;16.90;97.10;;;;;;5074813;27;21128;-61
2023/05/21 01:13:03;;;;;;;28.83;20.87;;;16.90;97.30;;;;;;5065057;28;20489;-62
2023/05/21 01:15:30;;;;;;;26.37;20.63;;;16.90;97.40;;;;;;5062464;27;20646;-61
2023/05/21 01:17:57;;;;;;;32.33;22.73;;;16.90;97.50;;;;;;5096285;27;20507;-62
2023/05/21 01:20:24;;;;;;;99.43;24.53;;;16.80;97.50;;;;;;5091132;28;20554;-62
2023/05/21 01:22:54;;;;;;;27.00;21.70;;;16.80;97.50;;;;;;5065192;28;22055;-62
2023/05/21 01:25:21;;;;;;;29.47;20.90;;;16.90;97.60;;;;;;5066950;28;20474;-61
2023/05/21 01:27:49;;;;;;;28.37;20.90;;;16.90;97.50;;;;;;5061799;28;20791;-62
2023/05/21 01:30:18;;;;;;;27.47;21.70;;;16.90;97.50;;;;;;5080130;27;20484;-62
2023/05/21 01:32:49;;;;;;;27.13;21.10;;;16.80;97.60;;;;;;5075212;27;20480;-62
2023/05/21 01:35:22;;;;;;;33.13;21.30;;;16.90;97.80;;;;;;5088894;27;20513;-61
2023/05/21 01:37:54;;;;;;;34.43;23.50;;;16.90;97.80;;;;;;5064290;28;20846;-62
2023/05/21 01:40:28;;;;;;;38.13;22.43;;;16.90;97.80;;;;;;5070815;27;20869;-62
2023/05/21 01:42:55;;;;;;;29.93;21.97;;;16.80;97.80;;;;;;5081028;27;20582;-62
2023/05/21 01:45:25;;;;;;;34.73;23.10;;;16.90;97.60;;;;;;5076260;27;20477;-62
2023/05/21 01:47:55;;;;;;;29.40;21.27;;;16.90;97.90;;;;;;5073583;27;20500;-61
2023/05/21 01:50:24;;;;;;;34.40;21.63;;;16.80;97.90;;;;;;5092678;28;21437;-62
2023/05/21 01:52:57;;;;;;;31.33;22.27;;;16.80;97.80;;;;;;5065380;28;20517;-62
2023/05/21 01:55:26;;;;;;;29.07;22.20;;;16.70;98.00;;;;;;5068897;28;20809;-61
2023/05/21 01:57:55;;;;;;;30.57;23.10;;;16.70;98.20;;;;;;5083357;27;20517;-62
2023/05/21 02:00:23;;;;;;;33.67;22.70;;;16.70;98.20;;;;;;5076734;27;20470;-61
2023/05/21 02:02:50;;;;;;;28.90;22.00;;;16.70;98.20;;;;;;5061380;27;20477;-61
2023/05/21 02:05:18;;;;;;;29.77;21.77;;;16.70;98.30;;;;;;5087511;27;20587;-62
2023/05/21 02:07:46;;;;;;;32.47;23.90;;;16.70;98.30;;;;;;5067494;28;20486;-61
2023/05/21 02:10:13;;;;;;;32.47;22.23;;;16.70;98.30;;;;;;5066035;28;21552;-61
2023/05/21 02:12:42;;;;;;;30.63;23.50;;;16.80;98.30;;;;;;5070771;28;20467;-61
2023/05/21 02:15:09;;;;;;;36.20;23.10;;;16.80;98.20;;;;;;5072432;28;20466;-61
2023/05/21 02:17:37;;;;;;;31.10;22.77;;;16.80;98.50;;;;;;5084861;27;20559;-62
2023/05/21 02:20:10;;;;;;;29.57;21.60;;;16.70;98.30;;;;;;5065388;27;20530;-61
2023/05/21 02:22:37;;;;;;;34.90;23.10;;;16.80;98.30;;;;;;5081671;27;20515;-62
2023/05/21 02:25:06;;;;;;;33.20;22.67;;;16.70;98.10;;;;;;5085209;27;20472;-62
2023/05/21 02:27:34;;;;;;;30.00;23.07;;;16.80;98.30;;;;;;5095540;27;20494;-61
2023/05/21 02:30:02;;;;;;;30.20;22.93;;;16.80;98.30;;;;;;5042714;27;20484;-61
2023/05/21 02:32:30;;;;;;;29.57;21.10;;;16.80;98.00;;;;;;5086761;27;20496;-61
2023/05/21 02:34:57;;;;;;;30.20;23.83;;;16.70;98.10;;;;;;5080777;27;20495;-61
2023/05/21 02:37:26;;;;;;;28.67;21.40;;;16.80;98.00;;;;;;5104499;27;20468;-61
2023/05/21 02:39:53;;;;;;;32.43;24.87;;;16.80;98.20;;;;;;5072775;27;20513;-62
2023/05/21 02:42:20;;;;;;;28.60;22.60;;;16.80;98.10;;;;;;5093549;27;20477;-62
2023/05/21 02:44:47;;;;;;;34.17;24.13;;;16.80;98.00;;;;;;5076486;27;21633;-62
2023/05/21 02:47:15;;;;;;;33.80;21.87;;;16.30;97.70;;;;;;5094469;28;20473;-61
2023/05/21 02:49:42;;;;;;;31.60;23.53;;;16.80;98.00;;;;;;5080415;28;20474;-61
2023/05/21 02:52:08;;;;;;;30.60;22.20;;;16.80;98.00;;;;;;5093313;28;20473;-61
2023/05/21 02:54:35;;;;;;;32.23;24.53;;;16.70;98.00;;;;;;5083039;28;20588;-61
2023/05/21 02:57:02;;;;;;;33.07;24.20;;;16.60;98.10;;;;;;5070004;27;20465;-61
2023/05/21 02:59:29;;;;;;;35.40;22.67;;;16.60;97.90;;;;;;5073664;27;20480;-62
2023/05/21 03:01:56;;;;;;;31.87;23.67;;;16.60;98.10;;;;;;5052506;27;21002;-61
2023/05/21 03:04:27;;;;;;;30.43;23.17;;;16.50;98.30;;;;;;5096752;27;20899;-62
2023/05/21 03:06:54;;;;;;;38.07;23.87;;;16.80;98.50;;;;;;5060298;27;20466;-61
2023/05/21 03:09:21;;;;;;;33.57;23.73;;;16.40;98.20;;;;;;5080573;27;20504;-62
2023/05/21 03:11:48;;;;;;;33.23;22.80;;;16.40;98.40;;;;;;5089816;27;20476;-61
2023/05/21 03:14:15;;;;;;;34.43;23.33;;;16.40;98.40;;;;;;5068245;27;20475;-61
2023/05/21 03:16:42;;;;;;;31.63;22.87;;;16.30;98.50;;;;;;5090091;27;20489;-61
2023/05/21 03:19:09;;;;;;;33.33;23.80;;;16.30;98.10;;;;;;5078243;27;21017;-61
2023/05/21 03:21:38;;;;;;;33.93;23.30;;;16.30;98.40;;;;;;5085524;27;20483;-61
2023/05/21 03:24:05;;;;;;;29.87;23.87;;;16.30;98.70;;;;;;5064288;27;20491;-61
2023/05/21 03:26:32;;;;;;;29.40;22.53;;;16.20;98.80;;;;;;5086689;27;20698;-60
2023/05/21 03:29:00;;;;;;;32.70;23.47;;;16.10;98.80;;;;;;5097094;27;20478;-61
2023/05/21 03:31:27;;;;;;;34.20;23.10;;;16.10;99.00;;;;;;5095557;27;21068;-61
2023/05/21 03:33:54;;;;;;;39.63;23.47;;;16.00;99.10;;;;;;5088608;27;20494;-62
2023/05/21 03:36:21;;;;;;;37.03;24.07;;;16.00;99.20;;;;;;5090668;27;21051;-61
2023/05/21 03:38:49;;;;;;;34.20;23.47;;;16.10;99.10;;;;;;5094230;27;20514;-61
2023/05/21 03:41:16;;;;;;;35.63;22.57;;;16.10;99.10;;;;;;5087805;27;21021;-62
2023/05/21 03:43:43;;;;;;;36.47;22.47;;;16.10;98.70;;;;;;5096564;27;21232;-61
2023/05/21 03:46:09;;;;;;;34.00;22.70;;;16.10;98.70;;;;;;5056947;27;20482;-62
2023/05/21 03:48:36;;;;;;;28.80;22.63;;;16.10;98.50;;;;;;5056951;27;20485;-62
2023/05/21 03:51:03;;;;;;;32.87;23.60;;;16.10;98.60;;;;;;5098721;27;20484;-63
2023/05/21 03:53:30;;;;;;;27.13;20.70;;;16.00;98.70;;;;;;5091940;27;20487;-62
2023/05/21 03:55:58;;;;;;;34.00;23.70;;;16.00;98.70;;;;;;5074878;27;20521;-62
2023/05/21 03:58:25;;;;;;;41.90;22.87;;;16.00;98.70;;;;;;5074362;27;21126;-62
2023/05/21 04:00:52;;;;;;;31.80;22.57;;;15.90;98.90;;;;;;5086339;27;21245;-61
2023/05/21 04:03:19;;;;;;;31.87;23.10;;;15.90;99.10;;;;;;5088552;27;20501;-61
2023/05/21 04:05:48;;;;;;;34.40;21.93;;;16.80;99.20;;;;;;5079492;27;20487;-62
2023/05/21 04:08:15;;;;;;;41.37;23.63;;;15.90;98.90;;;;;;5088458;27;20485;-61
2023/05/21 04:10:42;;;;;;;36.37;23.50;;;15.90;98.90;;;;;;5074720;27;20517;-61
2023/05/21 04:13:10;;;;;;;35.40;23.00;;;15.90;99.10;;;;;;5085083;28;20469;-61
2023/05/21 04:15:37;;;;;;;33.37;24.50;;;15.80;99.50;;;;;;5076738;28;20514;-61
2023/05/21 04:18:05;;;;;;;37.20;24.93;;;15.90;99.50;;;;;;5076048;27;20492;-61
2023/05/21 04:20:32;;;;;;;35.10;22.33;;;15.90;99.20;;;;;;5091981;27;20989;-61
2023/05/21 04:22:59;;;;;;;34.80;24.60;;;16.00;99.10;;;;;;5082732;27;20485;-61
2023/05/21 04:25:27;;;;;;;34.90;22.80;;;16.00;99.00;;;;;;5096238;27;20595;-61
2023/05/21 04:27:53;;;;;;;35.70;23.67;;;16.10;99.00;;;;;;5078781;28;20458;-60
2023/05/21 04:30:22;;;;;;;32.57;21.77;;;16.10;98.90;;;;;;5072548;27;21053;-60
2023/05/21 04:32:51;;;;;;;32.10;23.50;;;16.10;98.90;;;;;;5085062;27;21102;-61
2023/05/21 04:35:18;;;;;;;31.53;23.13;;;16.20;98.90;;;;;;5091666;27;20481;-61
2023/05/21 04:37:45;;;;;;;35.73;23.87;;;16.10;99.10;;;;;;5065711;27;20478;-61
2023/05/21 04:40:16;;;;;;;37.50;23.67;;;16.20;99.30;;;;;;5082616;27;20485;-61
2023/05/21 04:42:43;;;;;;;33.27;23.17;;;16.30;99.30;;;;;;5077118;27;20458;-61
2023/05/21 04:45:11;;;;;;;29.30;22.13;;;16.30;99.30;;;;;;5070518;27;20514;-61
2023/05/21 04:47:39;;;;;;;31.27;23.13;;;16.50;99.10;;;;;;5080419;27;20492;-61
2023/05/21 04:50:07;;;;;;;38.20;24.10;;;16.50;99.20;;;;;;5090230;27;20477;-61
2023/05/21 04:52:34;;;;;;;36.90;24.40;;;16.50;99.80;;;;;;5052547;28;20572;-61
2023/05/21 04:55:01;;;;;;;33.00;23.20;;;16.50;99.90;;;;;;5061238;27;20526;-61
2023/05/21 04:57:29;;;;;;;33.50;24.50;;;16.60;99.60;;;;;;5087782;27;20501;-61
2023/05/21 04:59:56;;;;;;;31.17;22.73;;;16.70;99.60;;;;;;5073962;28;20862;-61
2023/05/21 05:02:23;;;;;;;28.00;21.10;;;16.80;99.60;;;;;;5071805;27;20876;-61
2023/05/21 05:04:51;;;;;;;30.57;21.50;;;16.90;99.60;;;;;;5088363;27;20811;-61
2023/05/21 05:07:18;;;;;;;27.20;21.03;;;17.00;99.50;;;;;;5101768;27;20478;-61
2023/05/21 05:09:45;;;;;;;31.77;21.30;;;17.00;99.40;;;;;;5077769;27;20481;-62
2023/05/21 05:12:43;;;;;;;28.37;22.00;;;17.10;99.40;;;;;;5075207;27;20496;-62
2023/05/21 05:15:10;;;;;;;31.50;22.60;;;17.20;99.20;;;;;;5079320;27;20473;-61
2023/05/21 05:17:38;;;;;;;30.13;21.53;;;17.20;99.20;;;;;;5069068;28;20484;-62
2023/05/21 05:20:08;;;;;;;31.23;23.27;;;17.20;99.40;;;;;;5098200;27;20549;-61
2023/05/21 05:22:35;;;;;;;30.03;23.10;;;17.10;99.50;;;;;;5082737;27;20473;-62
2023/05/21 05:25:02;;;;;;;33.00;21.93;;;17.10;99.50;;;;;;5079724;28;20486;-61
2023/05/21 05:27:29;;;;;;;30.87;22.60;;;17.20;99.30;;;;;;5069648;28;20507;-61
2023/05/21 05:29:56;;;;;;;34.83;23.40;;;17.20;99.70;;;;;;5058283;28;20491;-62
2023/05/21 05:32:22;;;;;;;29.93;23.47;;;17.40;99.30;;;;;;5083845;27;20629;-61
2023/05/21 05:34:49;;;;;;;31.30;23.73;;;17.40;99.60;;;;;;5075511;27;20473;-61
2023/05/21 05:37:17;;;;;;;31.63;22.17;;;17.20;99.50;;;;;;5070335;27;20494;-61
2023/05/21 05:39:44;;;;;;;26.70;21.97;;;17.60;99.90;;;;;;5067549;27;20488;-61
2023/05/21 05:42:11;;;;;;;29.90;21.80;;;17.70;99.90;;;;;;5091643;27;20831;-62
2023/05/21 05:44:38;;;;;;;35.10;23.07;;;17.80;99.90;;;;;;5083398;28;20488;-61
2023/05/21 05:47:09;;;;;;;38.40;22.80;;;17.90;99.90;;;;;;5085395;27;20482;-61
2023/05/21 05:49:36;;;;;;;32.27;23.07;;;18.10;99.90;;;;;;5094601;27;20487;-61
2023/05/21 05:52:03;;;;;;;29.43;21.93;;;18.20;99.70;;;;;;5093153;27;20487;-61
2023/05/21 05:54:31;;;;;;;33.70;21.40;;;18.30;99.90;;;;;;5079661;27;20882;-61
2023/05/21 05:56:58;;;;;;;27.40;21.00;;;18.40;99.20;;;;;;5091869;27;20484;-61
2023/05/21 05:59:25;;;;;;;38.57;22.97;;;18.50;99.60;;;;;;5078769;28;20517;-61
2023/05/21 06:01:51;;;;;;;29.70;21.10;;;18.60;99.50;;;;;;5073251;27;20465;-60
2023/05/21 06:04:18;;;;;;;25.50;20.00;;;18.70;99.50;;;;;;5082478;27;20849;-61
2023/05/21 06:06:46;;;;;;;30.07;21.40;;;18.80;99.40;;;;;;5085557;27;20487;-61
2023/05/21 06:09:13;;;;;;;31.60;22.03;;;18.80;99.20;;;;;;5084226;28;20485;-61
2023/05/21 06:11:41;;;;;;;28.77;22.07;;;18.90;99.10;;;;;;5080981;27;20496;-61
2023/05/21 06:14:07;;;;;;;28.23;19.47;;;18.90;99.10;;;;;;5079585;27;20497;-61
2023/05/21 06:16:35;;;;;;;28.20;20.67;;;19.00;98.90;;;;;;5076644;28;20478;-61
2023/05/21 06:19:02;;;;;;;28.67;21.47;;;19.00;99.00;;;;;;5064304;27;21052;-61
2023/05/21 06:21:29;;;;;;;26.00;19.57;;;19.00;98.70;;;;;;5079840;27;20483;-61
2023/05/21 06:23:56;;;;;;;28.57;21.47;;;19.00;98.70;;;;;;5102335;27;20623;-61
2023/05/21 06:26:23;;;;;;;32.10;20.80;;;19.00;98.40;;;;;;5079515;27;20492;-62
2023/05/21 06:28:51;;;;;;;26.00;20.30;;;19.00;98.50;;;;;;5089168;27;20490;-61
2023/05/21 06:31:21;;;;;;;27.20;20.07;;;19.00;98.60;;;;;;5077137;27;20485;-62
2023/05/21 06:33:49;;;;;;;36.00;21.80;;;19.00;98.90;;;;;;5084543;28;20489;-62
2023/05/21 06:36:16;;;;;;;26.43;19.73;;;19.00;98.60;;;;;;5087910;27;20798;-62
2023/05/21 06:38:42;;;;;;;27.70;20.17;;;19.00;98.70;;;;;;5070893;27;20490;-62
2023/05/21 06:41:09;;;;;;;25.83;19.93;;;19.00;98.90;;;;;;5097258;27;21106;-62
2023/05/21 06:43:36;;;;;;;30.83;21.50;;;19.00;98.60;;;;;;5066101;28;20487;-61
2023/05/21 06:46:04;;;;;;;28.03;20.93;;;19.00;99.00;;;;;;5095393;27;20829;-61
2023/05/21 06:48:31;;;;;;;26.60;18.93;;;19.00;98.60;;;;;;5097163;27;20666;-61
2023/05/21 06:50:58;;;;;;;26.57;20.07;;;19.00;98.80;;;;;;5072577;28;20486;-61
2023/05/21 06:53:25;;;;;;;29.37;19.00;;;19.10;98.70;;;;;;5091089;27;20492;-62
2023/05/21 06:55:52;;;;;;;29.60;20.70;;;19.10;98.90;;;;;;5068301;27;20475;-62
2023/05/21 06:58:20;;;;;;;26.00;19.40;;;19.20;98.80;;;;;;5092500;27;20492;-62
2023/05/21 07:00:47;;;;;;;31.03;20.50;;;19.30;98.40;;;;;;5071349;27;20633;-63
2023/05/21 07:03:16;;;;;;;28.40;19.70;;;19.30;98.90;;;;;;5068325;28;20800;-62
2023/05/21 07:05:42;;;;;;;25.90;20.30;;;19.40;98.70;;;;;;5092320;27;20589;-61
2023/05/21 07:08:09;;;;;;;24.70;18.93;;;19.50;98.80;;;;;;5071969;27;20486;-62
2023/05/21 07:10:36;;;;;;;24.13;18.70;;;19.70;99.00;;;;;;5095204;27;20817;-62
2023/05/21 07:13:03;;;;;;;25.07;18.83;;;19.80;98.30;;;;;;5079276;28;20878;-62
2023/05/21 07:15:30;;;;;;;27.80;18.63;;;19.80;98.30;;;;;;5073257;27;20868;-62
2023/05/21 07:17:57;;;;;;;26.57;20.60;;;19.90;98.10;;;;;;5076470;27;20474;-62
2023/05/21 07:20:25;;;;;;;23.67;17.90;;;20.00;98.10;;;;;;5095658;28;20489;-62
2023/05/21 07:22:52;;;;;;;27.50;18.70;;;20.00;97.90;;;;;;5061309;28;20982;-62
2023/05/21 07:25:18;;;;;;;31.07;20.23;;;20.20;98.10;;;;;;5075533;27;20529;-62
2023/05/21 07:27:45;;;;;;;29.20;18.37;;;20.30;97.90;;;;;;5077897;27;20488;-62
2023/05/21 07:30:14;;;;;;;22.10;18.10;;;20.40;97.60;;;;;;5069547;28;20486;-62
2023/05/21 07:32:41;;;;;;;19.83;15.97;;;20.60;98.00;;;;;;5087872;28;20824;-62
2023/05/21 07:35:08;;;;;;;20.40;16.80;;;20.90;97.70;;;;;;5084282;27;20835;-62
2023/05/21 07:37:36;;;;;;;23.57;16.93;;;21.10;97.50;;;;;;5098717;27;20472;-62
2023/05/21 07:40:05;;;;;;;26.33;18.67;;;21.30;97.60;;;;;;5081460;27;20971;-62
2023/05/21 07:42:32;;;;;;;24.83;19.07;;;21.40;97.50;;;;;;5082454;28;20475;-63
2023/05/21 07:44:59;;;;;;;24.87;19.43;;;21.80;96.70;;;;;;5061247;28;20505;-63
2023/05/21 07:47:25;;;;;;;24.17;19.07;;;21.90;96.80;;;;;;5086319;28;20832;-63
2023/05/21 07:49:52;;;;;;;22.50;17.20;;;22.00;96.80;;;;;;5090623;27;20507;-63
2023/05/21 07:52:19;;;;;;;20.53;16.17;;;22.20;96.60;;;;;;5079903;27;20495;-63
2023/05/21 07:54:47;;;;;;;19.67;16.53;;;22.30;95.60;;;;;;5089230;27;21002;-63
2023/05/21 07:57:14;;;;;;;20.73;18.27;;;22.50;96.20;;;;;;5084453;28;20836;-63
2023/05/21 07:59:41;;;;;;;20.93;16.73;;;22.90;95.60;;;;;;5076096;28;20722;-63
2023/05/21 08:02:08;;;;;;;21.90;18.30;;;22.90;95.00;;;;;;5056532;27;20764;-62
2023/05/21 08:04:35;;;;;;;19.33;17.13;;;23.00;95.00;;;;;;5082406;28;20540;-63
2023/05/21 08:07:02;;;;;;;23.53;19.13;;;23.10;95.60;;;;;;5082978;27;20472;-63
2023/05/21 08:09:31;;;;;;;23.03;18.53;;;23.20;95.60;;;;;;5099208;27;20841;-63
2023/05/21 08:11:59;;;;;;;23.50;16.60;;;23.50;95.00;;;;;;5089852;27;20507;-63
2023/05/21 08:14:26;;;;;;;24.60;17.60;;;23.50;95.40;;;;;;5081733;27;20485;-63
2023/05/21 08:16:52;;;;;;;24.10;18.70;;;23.60;95.40;;;;;;5083668;27;20469;-63
2023/05/21 08:19:19;;;;;;;25.13;20.40;;;23.60;94.50;;;;;;5081032;27;20475;-63
2023/05/21 08:21:46;;;;;;;24.50;18.40;;;23.70;94.60;;;;;;5086837;27;20474;-63
2023/05/21 08:24:13;;;;;;;20.33;17.10;;;23.80;94.70;;;;;;5089396;28;20490;-63
2023/05/21 08:26:40;;;;;;;20.50;17.10;;;23.70;94.40;;;;;;5082833;28;20836;-63
2023/05/21 08:29:08;;;;;;;21.50;17.53;;;23.80;94.50;;;;;;5078744;27;21241;-63
2023/05/21 08:31:35;;;;;;;18.50;15.63;;;23.70;94.70;;;;;;5072573;28;20477;-63
2023/05/21 08:34:02;;;;;;;22.23;17.43;;;23.80;94.30;;;;;;5096311;27;20491;-63
2023/05/21 08:36:28;;;;;;;20.33;17.60;;;23.70;94.40;;;;;;5098726;27;20481;-63
2023/05/21 08:38:55;;;;;;;21.97;17.17;;;23.70;95.20;;;;;;5081472;27;20889;-63
2023/05/21 08:41:23;;;;;;;19.50;16.20;;;23.70;94.40;;;;;;5081979;28;20481;-63
2023/05/21 08:43:56;;;;;;;23.27;17.47;;;23.80;94.40;;;;;;5094589;28;21019;-62
2023/05/21 08:46:25;;;;;;;25.83;17.13;;;23.80;94.00;;;;;;5067798;27;20493;-63
2023/05/21 08:48:53;;;;;;;17.50;15.70;;;23.90;94.30;;;;;;5097503;27;20543;-63
2023/05/21 08:51:21;;;;;;;19.00;16.10;;;24.00;93.90;;;;;;5071813;28;20459;-63
2023/05/21 08:53:49;;;;;;;19.40;16.50;;;24.00;93.80;;;;;;5088871;28;20479;-63
2023/05/21 08:56:17;;;;;;;17.93;15.83;;;24.30;94.30;;;;;;5081283;27;20533;-63
2023/05/21 08:58:46;;;;;;;17.77;15.87;;;24.30;94.40;;;;;;5073836;27;20524;-63
2023/05/21 09:01:13;;;;;;;22.00;17.10;;;24.40;93.80;;;;;;5087370;27;20493;-63
2023/05/21 09:03:43;;;;;;;20.13;17.70;;;24.60;94.10;;;;;;5078592;27;20845;-63
2023/05/21 09:06:12;;;;;;;21.50;15.93;;;24.90;94.40;;;;;;5088066;27;20482;-63
2023/05/21 09:08:43;;;;;;;19.37;15.90;;;25.10;94.30;;;;;;5079712;27;20497;-63
2023/05/21 09:11:10;;;;;;;19.00;16.53;;;25.30;93.50;;;;;;5095361;27;20481;-63
2023/05/21 09:13:38;;;;;;;19.53;17.43;;;25.50;92.30;;;;;;5078267;27;20622;-63
2023/05/21 09:16:06;;;;;;;23.70;17.00;;;25.50;92.70;;;;;;5080968;28;20544;-64
2023/05/21 09:18:33;;;;;;;19.83;16.10;;;25.50;92.50;;;;;;5095098;27;20823;-63
2023/05/21 09:21:25;;;;;;;18.33;16.10;;;25.80;92.90;;;;;;5079923;28;20457;-63
2023/05/21 09:23:56;;;;;;;20.40;16.53;;;25.80;93.30;;;;;;5074674;28;20551;-63
2023/05/21 09:26:23;;;;;;;18.07;16.17;;;25.90;92.80;;;;;;5087135;28;20475;-64
2023/05/21 09:28:51;;;;;;;20.17;17.77;;;26.00;92.90;;;;;;5073664;28;20495;-63
2023/05/21 09:31:17;;;;;;;21.00;16.97;;;26.00;92.50;;;;;;5076783;28;20487;-64
2023/05/21 09:33:46;;;;;;;23.13;17.00;;;25.90;91.40;;;;;;5081566;28;20449;-63
2023/05/21 09:36:15;;;;;;;17.97;15.97;;;25.70;92.30;;;;;;5084180;28;20475;-64
2023/05/21 09:38:42;;;;;;;18.77;16.77;;;25.70;92.40;;;;;;5080288;28;20925;-64
2023/05/21 09:41:09;;;;;;;19.43;15.60;;;25.90;92.10;;;;;;5079194;28;21416;-64
2023/05/21 09:43:36;;;;;;;23.47;17.87;;;26.10;93.30;;;;;;5088442;27;20480;-64
2023/05/21 09:46:03;;;;;;;19.30;15.97;;;26.60;92.00;;;;;;5073244;28;20855;-64
2023/05/21 09:48:38;;;;;;;22.23;16.00;;;26.60;92.10;;;;;;5085321;28;20498;-63
2023/05/21 09:51:13;;;;;;;18.17;16.20;;;26.70;91.10;;;;;;5082344;28;20489;-63
2023/05/21 09:53:51;;;;;;;17.97;14.70;;;26.90;91.40;;;;;;5092823;28;20490;-64
2023/05/21 09:56:22;;;;;;;19.00;15.63;;;27.30;91.20;;;;;;5070216;28;20521;-64
2023/05/21 09:58:51;;;;;;;17.90;14.80;;;27.30;91.70;;;;;;5075454;28;20464;-64
2023/05/21 10:01:19;;;;;;;16.63;14.80;;;27.50;91.50;;;;;;5062371;28;20487;-64
2023/05/21 10:03:50;;;;;;;17.20;14.53;;;27.60;91.30;;;;;;5103542;27;20478;-64
2023/05/21 10:06:18;;;;;;;18.10;15.83;;;27.70;90.20;;;;;;5073139;27;20549;-63
2023/05/21 10:08:47;;;;;;;15.97;14.23;;;27.70;90.30;;;;;;5074464;28;20490;-63
2023/05/21 10:11:17;;;;;;;16.57;14.93;;;27.70;90.70;;;;;;5083974;27;20549;-64
2023/05/21 10:13:48;;;;;;;19.57;15.40;;;27.90;89.60;;;;;;5071370;28;20451;-64
2023/05/21 10:16:15;;;;;;;16.33;14.73;;;27.90;89.80;;;;;;5081731;28;21060;-64
2023/05/21 10:18:45;;;;;;;16.03;14.33;;;28.10;91.30;;;;;;5069628;28;20532;-64
2023/05/21 10:21:12;;;;;;;16.23;14.50;;;28.20;90.40;;;;;;5089892;27;20942;-65
2023/05/21 10:23:41;;;;;;;22.30;16.10;;;28.30;90.50;;;;;;5086977;27;20482;-64
2023/05/21 10:26:09;;;;;;;17.57;15.70;;;28.30;90.10;;;;;;5096015;27;20959;-64
2023/05/21 10:28:37;;;;;;;17.90;15.77;;;28.30;89.50;;;;;;5080949;28;20480;-64
2023/05/21 10:31:04;;;;;;;15.43;13.97;;;28.20;89.40;;;;;;5072244;28;20459;-64
2023/05/21 10:33:32;;;;;;;16.23;14.53;;;28.10;89.30;;;;;;5072886;27;20632;-64
2023/05/21 10:36:00;;;;;;;18.70;14.63;;;27.90;87.60;;;;;;5102647;27;20515;-64
2023/05/21 10:38:29;;;;;;;18.67;15.30;;;27.60;88.60;;;;;;5071665;28;20462;-64
2023/05/21 10:40:56;;;;;;;21.63;15.00;;;27.80;90.50;;;;;;5095663;27;20668;-64
2023/05/21 10:43:41;;;;;;;20.30;14.90;;;27.80;88.60;;;;;;5076328;28;20892;-64
2023/05/21 10:46:35;;;;;;;16.90;15.20;;;27.80;90.50;;;;;;5080523;28;20521;-64
2023/05/21 10:49:25;;;;;;;16.87;15.07;;;27.80;90.60;;;;;;5056858;28;20480;-64
2023/05/21 10:52:01;;;;;;;16.60;14.90;;;27.50;87.50;;;;;;5054759;27;20461;-64
2023/05/21 10:54:43;;;;;;;17.10;14.83;;;27.40;90.00;;;;;;5071830;28;20483;-64
2023/05/21 10:57:20;;;;;;;15.63;14.07;;;27.30;90.00;;;;;;5072282;28;20459;-64
2023/05/21 10:59:49;;;;;;;18.27;16.37;;;27.30;90.10;;;;;;5068810;28;20469;-64
2023/05/21 11:02:19;;;;;;;18.90;17.00;;;27.20;90.10;;;;;;5083875;27;20499;-63
2023/05/21 11:04:57;;;;;;;17.60;15.57;;;27.00;90.40;;;;;;5092138;27;20477;-63
2023/05/21 11:07:51;;;;;;;17.27;15.50;;;26.80;90.00;;;;;;5065813;27;20458;-64
2023/05/21 11:10:31;;;;;;;18.27;16.07;;;26.60;90.90;;;;;;5085149;27;20883;-64
2023/05/21 11:13:08;;;;;;;15.10;13.77;;;26.50;90.60;;;;;;5072289;27;20533;-63
2023/05/21 11:16:20;;;;;;;16.53;14.70;;;26.60;90.60;;;;;;5089205;27;20810;-64
2023/05/21 11:19:02;;;;;;;15.87;14.23;;;26.40;91.20;;;;;;5055743;27;20472;-64
2023/05/21 11:21:34;;;;;;;16.67;14.97;;;26.50;90.90;;;;;;5092904;27;20443;-64
2023/05/21 11:24:03;;;;;;;19.80;17.00;;;26.60;91.80;;;;;;5061903;27;20466;-64
2023/05/21 11:26:46;;;;;;;17.10;15.40;;;26.60;92.10;;;;;;5100254;27;20889;-64
2023/05/21 11:29:13;;;;;;;15.93;14.23;;;26.70;91.60;;;;;;5068696;27;20484;-64
2023/05/21 11:31:45;;;;;;;17.20;15.07;;;26.70;90.50;;;;;;5079911;28;20513;-65
2023/05/21 11:34:14;;;;;;;18.13;15.70;;;26.80;91.00;;;;;;5079588;27;20478;-64
2023/05/21 11:36:43;;;;;;;15.30;13.33;;;26.90;91.90;;;;;;5072668;28;20471;-64
2023/05/21 11:39:11;;;;;;;15.97;14.27;;;26.90;91.00;;;;;;5073213;28;20493;-64
2023/05/21 11:41:51;;;;;;;16.97;15.17;;;27.00;90.40;;;;;;5069932;28;20472;-64
2023/05/21 11:44:18;;;;;;;16.63;14.33;;;27.00;90.70;;;;;;5081124;27;20466;-64
2023/05/21 11:46:46;;;;;;;18.53;14.97;;;27.10;90.70;;;;;;5085958;27;20487;-64
2023/05/21 11:49:16;;;;;;;14.57;12.97;;;27.10;90.90;;;;;;5096763;27;20489;-64
2023/05/21 11:51:43;;;;;;;16.50;14.60;;;27.20;90.80;;;;;;5090294;27;20475;-63
2023/05/21 11:54:10;;;;;;;15.87;14.17;;;27.20;90.20;;;;;;5086782;27;21531;-64
2023/05/21 11:56:40;;;;;;;17.80;14.73;;;27.40;90.10;;;;;;5086720;27;20521;-64
2023/05/21 11:59:14;;;;;;;16.10;14.40;;;27.40;90.10;;;;;;5096841;27;20480;-65
2023/05/21 12:01:43;;;;;;;19.47;15.20;;;27.50;90.20;;;;;;5073488;28;20459;-64
2023/05/21 12:04:10;;;;;;;15.40;13.80;;;27.60;89.20;;;;;;5090271;27;20997;-65
2023/05/21 12:06:41;;;;;;;14.70;12.70;;;27.60;90.10;;;;;;5081472;27;20540;-65
2023/05/21 12:09:09;;;;;;;18.40;14.83;;;27.70;88.80;;;;;;5069572;27;20779;-64
2023/05/21 12:11:38;;;;;;;16.93;15.13;;;27.70;89.40;;;;;;5078496;27;20884;-64
2023/05/21 12:14:07;;;;;;;15.70;14.10;;;27.70;89.30;;;;;;5075717;28;20462;-64
2023/05/21 12:16:34;;;;;;;15.37;12.67;;;27.80;88.70;;;;;;5085031;27;20489;-64
2023/05/21 12:19:02;;;;;;;19.70;13.20;;;27.90;89.10;;;;;;5075385;27;20569;-64
2023/05/21 12:21:29;;;;;;;14.57;12.83;;;27.90;88.30;;;;;;5085024;27;20484;-64
2023/05/21 12:23:57;;;;;;;15.67;12.63;;;27.90;88.00;;;;;;5073022;27;21089;-65
2023/05/21 12:26:25;;;;;;;14.57;12.93;;;28.00;89.70;;;;;;5086757;28;20463;-65
2023/05/21 12:28:52;;;;;;;14.40;12.90;;;28.00;87.30;;;;;;5056023;27;20476;-64
2023/05/21 12:31:20;;;;;;;16.70;14.60;;;28.10;88.60;;;;;;5072359;28;20463;-64
2023/05/21 12:33:48;;;;;;;15.30;13.30;;;28.20;87.40;;;;;;5069749;28;20438;-64
2023/05/21 12:36:22;;;;;;;15.33;13.20;;;28.10;87.10;;;;;;5072898;28;20819;-64